| Temperature (°F) | Max | Average | Min |
|---|---|---|---|
| Max Temperature | 90 | 83.74 | 69 |
| Avg Temperature | 79.5 | 74.02 | 59.75 |
| Min Temperature | 77 | 67.23 | 53 |
| Dew Point (°F) | Max | Average | Min |
|---|---|---|---|
| Dew Point | 76 | 65.77 | 44 |
| Precipitation (in) | Max | Average | Min | Sum |
|---|---|---|---|---|
| Precipitation | 1.37 | 0.15 | 0.00 | 4.53 |
| Snowdepth | 0.00 | 0.00 | 0.00 | 0.00 |
| Wind (mph) | Max | Average | Min |
|---|---|---|---|
| Wind | 23 | 9.25 | 0 |
| Gust Wind | 39 | 3.25 | 0 |
| Sea Level Pressure (in) | Max | Average | Min |
|---|---|---|---|
| Sea Level Pressure | 30.06 | 29.86 | 29.63 |
| Date | Temperature (°F) | Dew Point (°F) | Humidity (%) | Wind Speed (mph) | Pressure (in) | Precipitation (in) | ||||||||||
|---|---|---|---|---|---|---|---|---|---|---|---|---|---|---|---|---|
| Max | Avg | Min | Max | Avg | Min | Max | Avg | Min | Max | Avg | Min | Max | Avg | Min | ||
| 10/31/2025 | 69 | 59.8 | 53 | 51 | 46.9 | 44 | 83 | 64.2 | 43 | 14 | 8.8 | 0 | 30.0 | 29.9 | 29.9 | 0.00 |
| 10/30/2025 | 74 | 64.9 | 56 | 65 | 53.6 | 44 | 93 | 67.9 | 51 | 20 | 12.8 | 6 | 29.9 | 29.8 | 29.7 | 0.01 |
| 10/29/2025 | 81 | 68.7 | 62 | 64 | 61.8 | 61 | 96 | 80.1 | 52 | 10 | 6.7 | 0 | 29.8 | 29.7 | 29.7 | 0.00 |
| 10/28/2025 | 81 | 71.7 | 64 | 68 | 65.8 | 62 | 100 | 82.4 | 58 | 16 | 8.6 | 0 | 29.8 | 29.7 | 29.7 | 1.37 |
| 10/27/2025 | 88 | 74.8 | 69 | 73 | 70.7 | 69 | 100 | 87.7 | 61 | 16 | 6.9 | 0 | 29.9 | 29.8 | 29.7 | 0.19 |
| 10/26/2025 | 84 | 74.5 | 71 | 75 | 69.6 | 64 | 94 | 85.0 | 67 | 16 | 11.7 | 7 | 30.0 | 29.9 | 29.9 | 0.00 |
| 10/25/2025 | 84 | 73.9 | 66 | 64 | 61.8 | 61 | 81 | 67.1 | 46 | 20 | 12.0 | 7 | 30.1 | 30.0 | 30.0 | 0.00 |
| 10/24/2025 | 84 | 72.0 | 61 | 62 | 59.5 | 56 | 90 | 67.0 | 41 | 20 | 10.8 | 0 | 30.0 | 30.0 | 30.0 | 0.00 |
| 10/23/2025 | 84 | 72.5 | 64 | 67 | 60.6 | 55 | 100 | 69.0 | 44 | 15 | 8.8 | 0 | 30.0 | 30.0 | 29.9 | 0.00 |
| 10/22/2025 | 85 | 75.1 | 69 | 72 | 67.2 | 58 | 100 | 78.7 | 43 | 14 | 6.2 | 0 | 30.0 | 29.9 | 29.9 | 0.00 |
| 10/21/2025 | 88 | 76.5 | 66 | 72 | 68.0 | 64 | 97 | 77.3 | 48 | 8 | 4.3 | 0 | 30.0 | 29.9 | 29.9 | 0.00 |
| 10/20/2025 | 84 | 74.0 | 68 | 68 | 67.3 | 66 | 96 | 80.2 | 62 | 13 | 6.9 | 0 | 30.0 | 30.0 | 29.9 | 0.02 |
| 10/19/2025 | 87 | 74.1 | 64 | 71 | 65.7 | 61 | 93 | 76.5 | 55 | 22 | 6.9 | 0 | 30.0 | 29.9 | 29.9 | 0.00 |
| 10/18/2025 | 83 | 72.7 | 63 | 62 | 59.0 | 56 | 81 | 63.9 | 41 | 13 | 6.8 | 0 | 30.0 | 29.9 | 29.9 | 0.00 |
| 10/17/2025 | 83 | 74.5 | 67 | 67 | 62.3 | 58 | 87 | 67.3 | 47 | 16 | 8.8 | 5 | 29.9 | 29.9 | 29.8 | 0.00 |
| 10/16/2025 | 85 | 74.2 | 66 | 67 | 64.5 | 61 | 90 | 73.6 | 48 | 17 | 9.8 | 5 | 29.8 | 29.8 | 29.8 | 0.01 |
| 10/15/2025 | 83 | 73.5 | 66 | 69 | 65.9 | 64 | 97 | 78.1 | 56 | 16 | 10.1 | 0 | 29.9 | 29.8 | 29.8 | 0.00 |
| 10/14/2025 | 85 | 74.4 | 65 | 67 | 63.1 | 58 | 93 | 70.0 | 41 | 15 | 7.4 | 0 | 29.9 | 29.9 | 29.8 | 0.00 |
| 10/13/2025 | 84 | 73.3 | 64 | 66 | 60.1 | 55 | 93 | 66.0 | 39 | 12 | 4.2 | 0 | 29.9 | 29.8 | 29.7 | 0.00 |
| 10/12/2025 | 82 | 71.6 | 63 | 65 | 61.0 | 59 | 90 | 71.2 | 47 | 13 | 7.0 | 0 | 29.7 | 29.7 | 29.7 | 0.00 |
| 10/11/2025 | 79 | 72.4 | 68 | 71 | 67.8 | 63 | 97 | 85.4 | 76 | 17 | 13.4 | 8 | 29.7 | 29.7 | 29.6 | 0.15 |
| 10/10/2025 | 83 | 74.6 | 72 | 73 | 71.1 | 66 | 97 | 89.3 | 56 | 23 | 10.3 | 6 | 29.9 | 29.8 | 29.7 | 0.22 |
| 10/9/2025 | 88 | 78.5 | 73 | 76 | 73.4 | 70 | 97 | 85.2 | 63 | 22 | 11.5 | 5 | 29.9 | 29.9 | 29.8 | 0.00 |
| 10/8/2025 | 90 | 79.5 | 71 | 75 | 70.7 | 67 | 97 | 76.3 | 49 | 17 | 10.0 | 0 | 29.9 | 29.9 | 29.9 | 0.05 |
| 10/7/2025 | 87 | 79.4 | 74 | 76 | 72.4 | 69 | 94 | 80.1 | 63 | 20 | 10.9 | 6 | 29.9 | 29.9 | 29.9 | 0.33 |
| 10/6/2025 | 80 | 77.6 | 77 | 76 | 74.7 | 73 | 94 | 90.9 | 82 | 18 | 10.7 | 3 | 29.9 | 29.9 | 29.9 | 0.61 |
| 10/5/2025 | 88 | 78.6 | 74 | 76 | 73.7 | 71 | 97 | 85.1 | 67 | 20 | 10.0 | 3 | 29.9 | 29.9 | 29.8 | 1.14 |
| 10/4/2025 | 82 | 75.2 | 71 | 74 | 71.9 | 69 | 94 | 89.5 | 74 | 20 | 11.1 | 6 | 29.9 | 29.9 | 29.9 | 0.15 |
| 10/3/2025 | 86 | 77.1 | 73 | 72 | 69.7 | 66 | 90 | 78.5 | 56 | 18 | 11.9 | 7 | 30.0 | 29.9 | 29.9 | 0.14 |
| 10/2/2025 | 86 | 76.5 | 72 | 74 | 69.6 | 64 | 97 | 80.7 | 49 | 23 | 11.6 | 5 | 30.0 | 29.9 | 29.9 | 0.14 |
| 10/1/2025 | 89 | 78.6 | 72 | 71 | 69.8 | 67 | 93 | 75.8 | 50 | 15 | 10.2 | 7 | 29.9 | 29.8 | 29.7 | 0.00 |